Time;durP1;ratioP1;P1;durP2;ratioP2;P2;SDS_P1;SDS_P2;PMS_P1;PMS_P2;Temp;Humidity;BMP_temperature;BMP_pressure;BME280_temperature;BME280_humidity;BME280_pressure;Samples;Min_cycle;Max_cycle;Signal;HPM_P1;HPM_P2
2023/12/03 00:02:24;;;;;;;;;;;12.00;80.00;;;;;;4998303;28;88437;-45
2023/12/03 00:04:50;;;;;;;;;;;12.00;80.30;;;;;;4995591;28;86921;-45
2023/12/03 00:07:16;;;;;;;;;;;12.00;80.30;;;;;;5000885;28;87028;-45
2023/12/03 00:09:42;;;;;;;;;;;12.00;80.40;;;;;;4998183;28;88249;-46
2023/12/03 00:12:08;;;;;;;;;;;12.00;80.30;;;;;;4999681;28;87001;-45
2023/12/03 00:14:36;;;;;;;;;;;12.00;80.30;;;;;;4999212;28;88018;-46
2023/12/03 00:17:02;;;;;;;;;;;12.00;80.50;;;;;;4996001;28;87534;-45
2023/12/03 00:19:27;;;;;;;;;;;12.00;80.40;;;;;;5002448;28;86357;-45
2023/12/03 00:21:53;;;;;;;;;;;12.00;80.30;;;;;;4997493;28;88458;-44
2023/12/03 00:24:19;;;;;;;;;;;12.00;80.50;;;;;;4997853;28;87194;-44
2023/12/03 00:26:44;;;;;;;;;;;12.00;80.30;;;;;;4995170;28;87792;-45
2023/12/03 00:29:13;;;;;;;;;;;12.00;80.50;;;;;;4996226;28;88461;-44
2023/12/03 00:31:38;;;;;;;;;;;12.00;80.30;;;;;;4998613;28;87229;-45
2023/12/03 00:34:04;;;;;;;;;;;11.90;80.30;;;;;;4995423;28;86855;-44
2023/12/03 00:36:30;;;;;;;;;;;12.00;80.60;;;;;;4995077;28;88572;-44
2023/12/03 00:38:56;;;;;;;;;;;12.00;80.50;;;;;;4998272;28;87038;-44
2023/12/03 00:41:22;;;;;;;;;;;12.00;80.40;;;;;;5001626;28;87059;-44
2023/12/03 00:43:48;;;;;;;;;;;12.00;80.40;;;;;;4998916;28;87688;-44
2023/12/03 00:46:16;;;;;;;;;;;12.00;80.60;;;;;;4998624;28;88185;-44
2023/12/03 00:48:42;;;;;;;;;;;12.00;80.40;;;;;;4996122;28;87591;-44
2023/12/03 00:51:07;;;;;;;;;;;12.00;80.40;;;;;;4997171;28;87829;-44
2023/12/03 00:53:33;;;;;;;;;;;12.00;80.60;;;;;;4998397;28;86856;-45
2023/12/03 00:55:59;;;;;;;;;;;12.00;80.40;;;;;;4996155;28;87548;-44
2023/12/03 00:58:24;;;;;;;;;;;12.00;80.40;;;;;;4994832;28;87039;-44
2023/12/03 01:00:50;;;;;;;;;;;11.90;80.20;;;;;;4998932;28;87106;-46
2023/12/03 01:03:15;;;;;;;;;;;12.00;80.40;;;;;;5003332;28;87565;-44
2023/12/03 01:05:41;;;;;;;;;;;12.00;80.70;;;;;;4995927;28;88077;-44
2023/12/03 01:08:06;;;;;;;;;;;12.00;80.30;;;;;;4998503;28;86676;-44
2023/12/03 01:10:32;;;;;;;;;;;12.00;80.70;;;;;;4998994;28;87052;-45
2023/12/03 01:12:58;;;;;;;;;;;12.00;80.60;;;;;;4996288;28;86930;-45
2023/12/03 01:15:23;;;;;;;;;;;12.00;80.60;;;;;;4997011;28;88333;-44
2023/12/03 01:17:49;;;;;;;;;;;12.00;80.90;;;;;;4994928;28;87211;-45
2023/12/03 01:20:15;;;;;;;;;;;12.00;80.70;;;;;;4998444;28;86829;-44
2023/12/03 01:22:40;;;;;;;;;;;12.00;80.70;;;;;;4994592;28;88587;-44
2023/12/03 01:25:06;;;;;;;;;;;11.90;80.90;;;;;;5001988;28;86999;-45
2023/12/03 01:27:32;;;;;;;;;;;12.00;80.90;;;;;;4995290;28;87468;-46
2023/12/03 01:29:57;;;;;;;;;;;12.00;80.90;;;;;;5001239;28;87034;-44
2023/12/03 01:32:23;;;;;;;;;;;12.00;80.80;;;;;;4996829;28;87061;-44
2023/12/03 01:34:48;;;;;;;;;;;11.90;80.80;;;;;;4995541;28;88666;-45
2023/12/03 01:37:14;;;;;;;;;;;12.00;81.00;;;;;;5003180;28;87787;-44
2023/12/03 01:39:39;;;;;;;;;;;11.90;80.60;;;;;;4995875;28;87855;-46
2023/12/03 01:42:05;;;;;;;;;;;11.90;80.80;;;;;;4992629;28;87647;-44
2023/12/03 01:44:30;;;;;;;;;;;11.90;80.80;;;;;;4994946;28;86964;-44
2023/12/03 01:46:58;;;;;;;;;;;11.90;80.90;;;;;;5002593;28;87018;-45
2023/12/03 01:49:24;;;;;;;;;;;11.90;80.60;;;;;;4994258;28;87056;-44
2023/12/03 01:51:49;;;;;;;;;;;12.00;81.10;;;;;;4995648;28;86786;-44
2023/12/03 01:54:15;;;;;;;;;;;12.00;81.00;;;;;;4998902;28;88633;-44
2023/12/03 01:56:41;;;;;;;;;;;11.90;81.10;;;;;;4996850;28;86176;-44
2023/12/03 01:59:06;;;;;;;;;;;12.00;81.10;;;;;;4997018;28;87118;-44
2023/12/03 02:01:32;;;;;;;;;;;12.00;81.10;;;;;;4997875;28;87620;-44
2023/12/03 02:03:57;;;;;;;;;;;11.90;81.30;;;;;;5000412;28;88639;-44
2023/12/03 02:06:24;;;;;;;;;;;11.90;81.30;;;;;;4997643;28;89096;-46
2023/12/03 02:08:49;;;;;;;;;;;12.00;81.10;;;;;;5000362;28;87616;-44
2023/12/03 02:11:15;;;;;;;;;;;11.90;81.00;;;;;;4995131;28;86978;-44
2023/12/03 02:13:41;;;;;;;;;;;11.90;81.00;;;;;;4997544;28;89077;-44
2023/12/03 02:16:07;;;;;;;;;;;11.90;81.20;;;;;;5001642;28;86970;-45
2023/12/03 02:18:33;;;;;;;;;;;11.90;81.30;;;;;;5001226;28;88714;-45
2023/12/03 02:20:59;;;;;;;;;;;12.00;81.20;;;;;;5002339;28;86960;-46
2023/12/03 02:23:30;;;;;;;;;;;12.00;81.20;;;;;;5001288;28;86875;-44
2023/12/03 02:25:56;;;;;;;;;;;12.00;81.20;;;;;;5002665;28;87061;-44
2023/12/03 02:28:22;;;;;;;;;;;11.90;81.20;;;;;;5000152;28;88314;-45
2023/12/03 02:30:47;;;;;;;;;;;11.90;81.50;;;;;;5003101;28;87654;-44
2023/12/03 02:33:13;;;;;;;;;;;11.90;81.50;;;;;;4996793;28;87453;-44
2023/12/03 02:35:38;;;;;;;;;;;11.90;81.50;;;;;;4998756;28;87213;-43
2023/12/03 02:38:04;;;;;;;;;;;11.90;81.40;;;;;;5004794;28;87009;-44
2023/12/03 02:40:33;;;;;;;;;;;11.90;81.30;;;;;;4998841;28;87369;-44
2023/12/03 02:42:59;;;;;;;;;;;11.90;81.50;;;;;;4997897;28;87037;-45
2023/12/03 02:45:25;;;;;;;;;;;11.90;81.60;;;;;;5000916;28;86702;-45
2023/12/03 02:47:50;;;;;;;;;;;11.90;82.20;;;;;;4996796;28;87242;-43
2023/12/03 02:50:16;;;;;;;;;;;11.90;81.70;;;;;;5006609;28;87129;-45
2023/12/03 02:52:41;;;;;;;;;;;11.90;81.60;;;;;;4996757;28;88467;-46
2023/12/03 02:55:08;;;;;;;;;;;11.90;81.80;;;;;;5000751;28;86978;-44
2023/12/03 02:57:34;;;;;;;;;;;11.90;81.60;;;;;;4998560;28;86959;-44
2023/12/03 03:00:00;;;;;;;;;;;11.90;81.70;;;;;;4997876;28;87554;-44
2023/12/03 03:02:25;;;;;;;;;;;11.90;81.70;;;;;;5002614;28;87012;-45
2023/12/03 03:04:51;;;;;;;;;;;11.90;82.10;;;;;;4997031;28;87816;-44
2023/12/03 03:07:16;;;;;;;;;;;11.90;81.70;;;;;;4996299;28;87444;-44
2023/12/03 03:09:42;;;;;;;;;;;11.90;81.70;;;;;;5000708;28;86333;-44
2023/12/03 03:12:07;;;;;;;;;;;11.90;81.80;;;;;;5001954;28;87124;-44
2023/12/03 03:14:33;;;;;;;;;;;12.00;81.90;;;;;;5000616;28;86934;-44
2023/12/03 03:16:59;;;;;;;;;;;11.90;81.70;;;;;;4998794;28;87840;-46
2023/12/03 03:19:24;;;;;;;;;;;11.90;82.00;;;;;;4998363;28;87494;-44
2023/12/03 03:21:50;;;;;;;;;;;11.90;82.00;;;;;;4998604;28;87219;-44
2023/12/03 03:24:15;;;;;;;;;;;11.90;81.60;;;;;;4997782;28;86961;-44
2023/12/03 03:26:41;;;;;;;;;;;11.90;82.20;;;;;;4999351;28;87024;-44
2023/12/03 03:29:06;;;;;;;;;;;11.90;81.90;;;;;;4998763;28;86992;-44
2023/12/03 03:31:32;;;;;;;;;;;11.90;82.00;;;;;;4996615;28;86895;-44
2023/12/03 03:33:57;;;;;;;;;;;11.90;82.20;;;;;;5003051;28;86702;-46
2023/12/03 03:36:23;;;;;;;;;;;11.90;82.00;;;;;;4996632;28;86997;-45
2023/12/03 03:38:50;;;;;;;;;;;11.90;81.90;;;;;;4998966;28;87507;-44
2023/12/03 03:41:15;;;;;;;;;;;11.90;82.20;;;;;;4996178;28;87943;-44
2023/12/03 03:43:41;;;;;;;;;;;11.90;82.20;;;;;;5000269;28;86831;-45
2023/12/03 03:46:06;;;;;;;;;;;11.90;82.30;;;;;;4997706;28;87355;-44
2023/12/03 03:48:32;;;;;;;;;;;11.90;82.00;;;;;;4998430;28;87040;-45
2023/12/03 03:50:58;;;;;;;;;;;11.90;82.00;;;;;;4996662;28;87867;-44
2023/12/03 03:53:23;;;;;;;;;;;11.90;82.20;;;;;;4996277;28;87455;-43
2023/12/03 03:55:49;;;;;;;;;;;11.90;82.30;;;;;;5001187;28;87144;-44
2023/12/03 03:58:14;;;;;;;;;;;11.90;82.40;;;;;;4992098;28;86900;-44
2023/12/03 04:00:40;;;;;;;;;;;11.90;82.60;;;;;;5000725;28;87020;-44
2023/12/03 04:03:05;;;;;;;;;;;11.90;82.60;;;;;;4996786;28;87074;-45
2023/12/03 04:05:31;;;;;;;;;;;11.90;82.50;;;;;;5000045;28;88428;-45
2023/12/03 04:07:56;;;;;;;;;;;11.90;82.30;;;;;;4994617;28;87023;-44
2023/12/03 04:10:22;;;;;;;;;;;11.90;82.60;;;;;;4996614;28;87046;-44
2023/12/03 04:12:48;;;;;;;;;;;11.90;82.50;;;;;;4994394;28;88632;-44
2023/12/03 04:15:13;;;;;;;;;;;11.90;82.50;;;;;;5001834;28;87136;-44
2023/12/03 04:17:39;;;;;;;;;;;11.90;82.60;;;;;;4998628;28;86898;-44
2023/12/03 04:20:06;;;;;;;;;;;11.90;82.60;;;;;;4999089;28;87337;-43
2023/12/03 04:22:32;;;;;;;;;;;11.90;82.30;;;;;;4999243;28;86999;-44
2023/12/03 04:24:58;;;;;;;;;;;11.90;82.70;;;;;;4999727;28;87902;-45
2023/12/03 04:27:23;;;;;;;;;;;11.90;82.70;;;;;;4997797;28;86934;-45
2023/12/03 04:29:49;;;;;;;;;;;11.90;82.60;;;;;;4998021;28;88466;-45
2023/12/03 04:32:15;;;;;;;;;;;11.90;82.80;;;;;;4996878;28;88412;-46
2023/12/03 04:34:41;;;;;;;;;;;11.90;82.60;;;;;;4993684;28;87019;-44
2023/12/03 04:37:06;;;;;;;;;;;11.90;82.60;;;;;;5000473;28;87974;-44
2023/12/03 04:39:32;;;;;;;;;;;11.90;82.60;;;;;;4995373;28;87054;-44
2023/12/03 04:41:57;;;;;;;;;;;11.90;82.60;;;;;;5000055;28;86968;-45
2023/12/03 04:44:23;;;;;;;;;;;11.90;82.80;;;;;;4994990;28;88542;-44
2023/12/03 04:46:49;;;;;;;;;;;11.90;82.60;;;;;;4999071;28;86246;-43
2023/12/03 04:49:14;;;;;;;;;;;11.90;82.70;;;;;;4998508;28;86997;-46
2023/12/03 04:51:40;;;;;;;;;;;11.90;83.00;;;;;;4996026;28;87504;-45
2023/12/03 04:54:05;;;;;;;;;;;11.90;83.30;;;;;;4996863;28;88040;-45
2023/12/03 04:56:31;;;;;;;;;;;11.80;82.70;;;;;;4994865;28;87746;-44
2023/12/03 04:58:56;;;;;;;;;;;11.90;82.60;;;;;;5000168;28;89309;-44
2023/12/03 05:01:22;;;;;;;;;;;11.90;82.60;;;;;;4998000;28;86938;-45
2023/12/03 05:03:48;;;;;;;;;;;11.90;82.50;;;;;;4997696;28;87285;-44
2023/12/03 05:06:13;;;;;;;;;;;11.80;82.60;;;;;;4997996;28;87063;-44
2023/12/03 05:08:39;;;;;;;;;;;11.80;82.60;;;;;;4998590;28;87055;-45
2023/12/03 05:11:05;;;;;;;;;;;11.80;82.80;;;;;;4994471;28;86692;-44
2023/12/03 05:13:31;;;;;;;;;;;11.90;82.70;;;;;;4996524;28;87033;-45
2023/12/03 05:15:57;;;;;;;;;;;11.90;82.70;;;;;;4996296;28;86861;-45
2023/12/03 05:18:22;;;;;;;;;;;11.80;82.70;;;;;;4997648;28;88327;-44
2023/12/03 05:20:51;;;;;;;;;;;11.80;82.50;;;;;;5000932;28;87058;-44
2023/12/03 05:23:16;;;;;;;;;;;11.80;82.60;;;;;;4997251;28;87253;-45
2023/12/03 05:25:42;;;;;;;;;;;11.80;82.80;;;;;;4995105;28;87051;-44
2023/12/03 05:28:07;;;;;;;;;;;11.90;82.50;;;;;;4997731;28;86934;-44
2023/12/03 05:30:33;;;;;;;;;;;11.90;82.70;;;;;;4994447;28;87428;-44
2023/12/03 05:32:58;;;;;;;;;;;11.90;82.30;;;;;;4997694;28;86926;-44
2023/12/03 05:35:24;;;;;;;;;;;11.80;82.20;;;;;;4996240;28;86737;-45
2023/12/03 05:37:50;;;;;;;;;;;11.80;82.70;;;;;;4998361;28;87424;-44
2023/12/03 05:40:15;;;;;;;;;;;11.80;82.60;;;;;;5001843;28;87610;-45
2023/12/03 05:42:41;;;;;;;;;;;11.80;82.70;;;;;;4997252;28;87999;-46
2023/12/03 05:45:07;;;;;;;;;;;11.80;82.70;;;;;;4997984;28;87026;-44
2023/12/03 05:47:34;;;;;;;;;;;11.80;82.80;;;;;;4997202;28;86899;-43
2023/12/03 05:50:00;;;;;;;;;;;11.80;82.60;;;;;;5003369;28;88027;-44
2023/12/03 05:52:26;;;;;;;;;;;11.80;82.90;;;;;;4996197;28;87002;-45
2023/12/03 05:54:51;;;;;;;;;;;11.80;82.70;;;;;;5002160;28;87801;-44
2023/12/03 05:57:17;;;;;;;;;;;11.80;82.80;;;;;;5004612;28;87369;-44
2023/12/03 05:59:42;;;;;;;;;;;11.80;82.20;;;;;;5000423;28;86426;-44
2023/12/03 06:02:08;;;;;;;;;;;11.80;82.60;;;;;;4997051;28;87930;-44
2023/12/03 06:04:33;;;;;;;;;;;11.80;82.50;;;;;;5000444;28;88477;-45
2023/12/03 06:06:59;;;;;;;;;;;11.80;82.90;;;;;;4999810;28;87788;-44
2023/12/03 06:09:24;;;;;;;;;;;11.80;82.70;;;;;;4997863;28;87741;-44
2023/12/03 06:11:50;;;;;;;;;;;11.80;82.50;;;;;;5001856;28;87209;-44
2023/12/03 06:14:16;;;;;;;;;;;11.80;83.00;;;;;;4994708;28;88020;-44
2023/12/03 06:16:41;;;;;;;;;;;11.80;82.70;;;;;;4996806;28;87608;-44
2023/12/03 06:19:07;;;;;;;;;;;11.80;83.10;;;;;;4998313;28;87163;-46
2023/12/03 06:21:32;;;;;;;;;;;11.80;82.70;;;;;;4997260;28;87105;-45
2023/12/03 06:23:58;;;;;;;;;;;11.80;82.70;;;;;;5000865;28;86310;-45
2023/12/03 06:26:24;;;;;;;;;;;11.80;82.60;;;;;;5004368;28;87140;-45
2023/12/03 06:28:49;;;;;;;;;;;11.80;82.70;;;;;;5000430;28;88321;-45
2023/12/03 06:31:15;;;;;;;;;;;11.80;83.30;;;;;;4997035;28;87966;-45
2023/12/03 06:33:40;;;;;;;;;;;11.80;82.70;;;;;;4997341;28;87735;-44
2023/12/03 06:36:06;;;;;;;;;;;11.80;82.80;;;;;;5000353;28;87428;-45
2023/12/03 06:38:32;;;;;;;;;;;11.80;82.90;;;;;;5000215;28;88821;-44
2023/12/03 06:40:57;;;;;;;;;;;11.80;82.80;;;;;;4998859;28;89920;-45
2023/12/03 06:43:23;;;;;;;;;;;11.80;83.00;;;;;;5001503;28;88754;-45
2023/12/03 06:45:48;;;;;;;;;;;11.80;82.90;;;;;;5004524;28;87180;-45
2023/12/03 06:48:14;;;;;;;;;;;11.70;82.80;;;;;;4999113;28;87760;-44
2023/12/03 06:50:39;;;;;;;;;;;11.80;83.10;;;;;;4997506;28;87460;-44
2023/12/03 06:53:05;;;;;;;;;;;11.80;82.90;;;;;;4995176;28;87897;-43
2023/12/03 06:55:31;;;;;;;;;;;11.70;83.10;;;;;;5003225;28;88241;-44
2023/12/03 06:57:56;;;;;;;;;;;11.80;83.10;;;;;;5000203;28;87013;-44
2023/12/03 07:00:23;;;;;;;;;;;11.80;83.20;;;;;;4993379;28;88652;-46
2023/12/03 07:02:50;;;;;;;;;;;11.80;83.20;;;;;;4995821;28;88473;-44
2023/12/03 07:05:17;;;;;;;;;;;11.70;82.70;;;;;;5002983;28;87145;-45
2023/12/03 07:07:43;;;;;;;;;;;11.70;83.10;;;;;;5001752;28;87084;-44
2023/12/03 07:10:09;;;;;;;;;;;11.80;83.10;;;;;;4999714;28;87153;-45
2023/12/03 07:12:34;;;;;;;;;;;11.70;83.20;;;;;;4999050;28;86633;-43
2023/12/03 07:15:00;;;;;;;;;;;11.80;83.00;;;;;;4996228;28;87410;-45
2023/12/03 07:17:25;;;;;;;;;;;11.70;83.30;;;;;;4996124;28;87020;-44
2023/12/03 07:19:51;;;;;;;;;;;11.80;82.90;;;;;;4996102;28;87884;-44
2023/12/03 07:22:16;;;;;;;;;;;11.70;83.10;;;;;;4998148;28;87520;-44
2023/12/03 07:24:42;;;;;;;;;;;11.70;83.20;;;;;;5002448;28;87297;-44
2023/12/03 07:27:08;;;;;;;;;;;11.70;82.90;;;;;;5000241;28;87951;-46
2023/12/03 07:29:34;;;;;;;;;;;11.70;83.40;;;;;;4999163;28;88579;-44
2023/12/03 07:31:59;;;;;;;;;;;11.70;83.30;;;;;;5003180;28;87813;-44
2023/12/03 07:34:26;;;;;;;;;;;11.70;83.30;;;;;;4992613;28;88501;-44
2023/12/03 07:36:51;;;;;;;;;;;11.70;83.30;;;;;;4997631;28;86219;-44
2023/12/03 07:39:18;;;;;;;;;;;11.70;83.40;;;;;;4995763;28;87062;-44
2023/12/03 07:41:53;;;;;;;;;;;11.70;83.20;;;;;;4999063;28;87435;-43
2023/12/03 07:44:18;;;;;;;;;;;11.70;83.80;;;;;;4997453;28;88309;-44
2023/12/03 07:46:44;;;;;;;;;;;11.70;83.30;;;;;;4999177;28;87784;-44
2023/12/03 07:49:10;;;;;;;;;;;11.70;83.00;;;;;;4996652;28;87437;-43
2023/12/03 07:51:35;;;;;;;;;;;11.70;83.20;;;;;;4998834;28;87091;-44
2023/12/03 07:54:01;;;;;;;;;;;11.70;83.30;;;;;;4996681;28;87290;-44
2023/12/03 07:56:33;;;;;;;;;;;11.70;83.30;;;;;;4996016;28;87255;-44
2023/12/03 07:58:59;;;;;;;;;;;11.70;83.30;;;;;;4996803;28;86927;-45
2023/12/03 08:01:25;;;;;;;;;;;11.70;83.30;;;;;;4998687;28;86671;-44
2023/12/03 08:03:51;;;;;;;;;;;11.70;83.30;;;;;;4996501;28;86961;-44
2023/12/03 08:06:17;;;;;;;;;;;11.70;83.40;;;;;;4998077;28;87850;-45
2023/12/03 08:08:42;;;;;;;;;;;11.70;83.50;;;;;;4999486;28;88384;-44
2023/12/03 08:11:08;;;;;;;;;;;11.70;83.30;;;;;;4996081;28;87126;-44
2023/12/03 08:13:33;;;;;;;;;;;11.70;83.30;;;;;;5000724;28;86958;-43
2023/12/03 08:16:01;;;;;;;;;;;11.70;83.20;;;;;;4999733;28;87084;-44
2023/12/03 08:18:27;;;;;;;;;;;11.70;83.60;;;;;;4999784;28;86828;-45
2023/12/03 08:20:52;;;;;;;;;;;11.70;83.30;;;;;;4993998;28;87670;-44
2023/12/03 08:23:18;;;;;;;;;;;11.70;83.30;;;;;;4994220;28;88077;-44
2023/12/03 08:25:43;;;;;;;;;;;11.70;83.20;;;;;;4993651;28;86689;-45
2023/12/03 08:28:09;;;;;;;;;;;11.70;83.40;;;;;;4998143;28;88787;-45
2023/12/03 08:30:34;;;;;;;;;;;11.70;83.40;;;;;;4996020;28;87092;-45
2023/12/03 08:33:00;;;;;;;;;;;11.70;83.30;;;;;;4995705;28;87931;-44
2023/12/03 08:35:26;;;;;;;;;;;11.70;83.30;;;;;;4996838;28;88504;-46
2023/12/03 08:37:52;;;;;;;;;;;11.70;83.40;;;;;;4996379;28;86937;-44
2023/12/03 08:40:17;;;;;;;;;;;11.60;83.40;;;;;;4991471;28;88764;-44
2023/12/03 08:42:44;;;;;;;;;;;11.70;83.30;;;;;;4998709;28;86991;-46
2023/12/03 08:45:10;;;;;;;;;;;11.70;83.30;;;;;;4995543;28;87044;-44
2023/12/03 08:47:35;;;;;;;;;;;11.70;83.10;;;;;;4995335;28;87488;-44
2023/12/03 08:50:01;;;;;;;;;;;11.70;83.40;;;;;;4992285;28;86389;-45
2023/12/03 08:52:31;;;;;;;;;;;11.70;83.40;;;;;;4992046;28;86858;-45
2023/12/03 08:54:59;;;;;;;;;;;11.70;83.50;;;;;;4999942;28;87360;-44
2023/12/03 08:57:25;;;;;;;;;;;11.70;83.30;;;;;;4999736;28;87997;-44
2023/12/03 08:59:53;;;;;;;;;;;11.60;83.20;;;;;;4997477;28;87446;-45
2023/12/03 09:02:19;;;;;;;;;;;11.70;83.40;;;;;;5030081;28;87047;-44
2023/12/03 09:04:45;;;;;;;;;;;11.70;83.20;;;;;;4996009;28;87248;-44
2023/12/03 09:07:11;;;;;;;;;;;11.60;83.00;;;;;;4994091;28;86939;-46
2023/12/03 09:09:37;;;;;;;;;;;11.60;82.90;;;;;;4989901;28;87054;-45
2023/12/03 09:12:04;;;;;;;;;;;11.60;82.80;;;;;;4998416;28;87327;-44
2023/12/03 09:14:30;;;;;;;;;;;11.60;83.10;;;;;;5004610;28;86985;-45
2023/12/03 09:16:57;;;;;;;;;;;11.60;83.10;;;;;;4998808;28;88695;-45
2023/12/03 09:19:23;;;;;;;;;;;11.60;83.10;;;;;;4993694;28;87574;-45
2023/12/03 09:21:49;;;;;;;;;;;11.60;83.20;;;;;;4993645;28;87809;-45
2023/12/03 09:24:15;;;;;;;;;;;11.60;83.00;;;;;;4993519;28;87745;-45
2023/12/03 09:26:43;;;;;;;;;;;11.60;82.80;;;;;;4993893;28;87711;-44
2023/12/03 09:29:11;;;;;;;;;;;11.60;82.80;;;;;;4995201;28;88393;-46
2023/12/03 09:31:39;;;;;;;;;;;11.60;82.90;;;;;;4997217;28;87053;-44
2023/12/03 09:34:05;;;;;;;;;;;11.60;82.70;;;;;;4994731;28;87509;-44
2023/12/03 09:36:31;;;;;;;;;;;11.60;82.60;;;;;;4995779;28;87178;-44
2023/12/03 09:38:57;;;;;;;;;;;11.60;82.90;;;;;;4998532;28;86804;-44
2023/12/03 09:41:24;;;;;;;;;;;11.60;82.80;;;;;;5000930;28;87143;-44
2023/12/03 09:43:52;;;;;;;;;;;11.60;82.80;;;;;;4994869;28;87036;-43
2023/12/03 09:46:19;;;;;;;;;;;11.60;82.60;;;;;;4996695;28;88389;-44
2023/12/03 09:48:45;;;;;;;;;;;11.60;82.60;;;;;;4997275;28;87042;-44
2023/12/03 09:51:11;;;;;;;;;;;11.50;82.80;;;;;;4995980;28;86946;-44
2023/12/03 09:53:43;;;;;;;;;;;11.50;82.50;;;;;;4996378;28;87717;-44
2023/12/03 09:56:09;;;;;;;;;;;11.50;82.60;;;;;;4996817;28;87349;-44
2023/12/03 09:58:35;;;;;;;;;;;11.50;82.50;;;;;;4996883;28;88389;-45
2023/12/03 10:01:01;;;;;;;;;;;11.50;82.50;;;;;;4999771;28;87493;-46
2023/12/03 10:03:27;;;;;;;;;;;11.50;82.60;;;;;;4994320;28;87442;-44
2023/12/03 10:05:53;;;;;;;;;;;11.50;82.60;;;;;;4992258;28;88468;-44
2023/12/03 10:08:19;;;;;;;;;;;11.50;82.60;;;;;;4997540;28;86935;-43
2023/12/03 10:10:49;;;;;;;;;;;11.50;82.50;;;;;;4992862;28;88286;-43
2023/12/03 10:13:14;;;;;;;;;;;11.50;82.50;;;;;;4992013;28;87430;-44
2023/12/03 10:15:40;;;;;;;;;;;11.50;82.50;;;;;;5001312;28;87204;-44
2023/12/03 10:18:06;;;;;;;;;;;11.50;82.40;;;;;;4995832;28;87075;-44
2023/12/03 10:20:32;;;;;;;;;;;11.50;82.40;;;;;;4996474;28;88516;-43
2023/12/03 10:22:58;;;;;;;;;;;11.40;82.30;;;;;;4994408;28;87150;-43
2023/12/03 10:25:34;;;;;;;;;;;11.40;82.20;;;;;;4996688;28;87685;-44
2023/12/03 10:28:01;;;;;;;;;;;11.50;82.30;;;;;;4997633;28;86549;-43
2023/12/03 10:30:27;;;;;;;;;;;11.40;82.20;;;;;;4995275;28;87046;-43
2023/12/03 10:32:53;;;;;;;;;;;11.40;82.20;;;;;;4996269;28;87551;-43
2023/12/03 10:35:22;;;;;;;;;;;11.40;82.30;;;;;;4995327;28;87941;-42
2023/12/03 10:37:48;;;;;;;;;;;11.40;82.20;;;;;;4994406;28;87907;-43
2023/12/03 10:40:15;;;;;;;;;;;11.40;82.80;;;;;;4996894;28;88519;-44
2023/12/03 10:42:40;;;;;;;;;;;11.40;82.20;;;;;;4998908;28;86974;-44
2023/12/03 10:45:07;;;;;;;;;;;11.40;82.10;;;;;;5002352;28;87400;-43
2023/12/03 10:47:33;;;;;;;;;;;11.30;82.10;;;;;;5004680;28;87041;-42
2023/12/03 10:50:00;;;;;;;;;;;11.30;82.00;;;;;;4997334;28;88105;-43
2023/12/03 10:52:27;;;;;;;;;;;11.30;82.00;;;;;;5001512;28;86200;-43
2023/12/03 10:54:52;;;;;;;;;;;11.30;82.00;;;;;;5000586;28;87015;-43
2023/12/03 10:57:19;;;;;;;;;;;11.40;82.10;;;;;;4998430;28;87596;-43
2023/12/03 10:59:45;;;;;;;;;;;11.30;82.10;;;;;;4997559;28;88722;-43
2023/12/03 11:02:12;;;;;;;;;;;11.30;82.20;;;;;;4997022;28;87045;-43
2023/12/03 11:04:41;;;;;;;;;;;11.30;82.10;;;;;;5004456;28;87664;-42
2023/12/03 11:07:07;;;;;;;;;;;11.30;82.00;;;;;;4996318;28;87006;-42
2023/12/03 11:09:39;;;;;;;;;;;11.20;82.00;;;;;;4999094;28;88003;-43
2023/12/03 11:12:07;;;;;;;;;;;11.30;82.00;;;;;;4999573;28;87190;-43
2023/12/03 11:14:33;;;;;;;;;;;11.30;82.00;;;;;;4997314;28;87280;-43
2023/12/03 11:16:59;;;;;;;;;;;11.20;81.80;;;;;;4999114;28;86699;-43
2023/12/03 11:19:25;;;;;;;;;;;11.20;81.80;;;;;;4997348;28;87475;-43
2023/12/03 11:21:54;;;;;;;;;;;11.20;81.80;;;;;;4996731;28;87107;-44
2023/12/03 11:24:39;;;;;;;;;;;11.20;81.80;;;;;;4996393;28;88639;-44
2023/12/03 11:27:07;;;;;;;;;;;11.20;81.70;;;;;;5001995;28;87586;-43
2023/12/03 11:29:53;;;;;;;;;;;11.20;81.70;;;;;;5033185;28;87578;-44
2023/12/03 11:32:19;;;;;;;;;;;11.20;81.60;;;;;;4996476;28;87694;-43
2023/12/03 11:35:05;;;;;;;;;;;11.20;81.70;;;;;;4998365;28;87248;-43
2023/12/03 11:37:31;;;;;;;;;;;11.10;81.60;;;;;;4996579;28;87600;-44
2023/12/03 11:40:09;;;;;;;;;;;11.10;81.50;;;;;;4997624;28;87314;-43
2023/12/03 11:42:45;;;;;;;;;;;11.10;81.50;;;;;;5000040;28;86343;-43
2023/12/03 11:45:25;;;;;;;;;;;11.10;81.50;;;;;;4993224;28;87148;-44
2023/12/03 11:48:06;;;;;;;;;;;11.10;81.40;;;;;;5001249;28;87438;-43
2023/12/03 11:50:33;;;;;;;;;;;11.10;81.40;;;;;;5000589;28;87934;-45
2023/12/03 11:52:59;;;;;;;;;;;11.10;81.40;;;;;;4996421;28;88490;-43
2023/12/03 11:55:25;;;;;;;;;;;11.10;81.50;;;;;;4997549;28;87099;-44
2023/12/03 11:57:51;;;;;;;;;;;11.00;81.30;;;;;;5001569;28;86986;-43
2023/12/03 12:00:17;;;;;;;;;;;11.10;81.30;;;;;;4998374;28;87456;-43
2023/12/03 12:02:43;;;;;;;;;;;11.00;81.20;;;;;;4998248;28;87643;-43
2023/12/03 12:05:09;;;;;;;;;;;11.00;81.20;;;;;;4992357;28;88004;-43
2023/12/03 12:07:35;;;;;;;;;;;11.00;81.30;;;;;;4999387;28;86714;-44
2023/12/03 12:10:00;;;;;;;;;;;11.00;81.30;;;;;;4999450;28;87130;-44
2023/12/03 12:12:26;;;;;;;;;;;11.00;81.40;;;;;;4995256;28;87756;-43
2023/12/03 12:14:52;;;;;;;;;;;11.00;81.30;;;;;;4998432;28;88111;-43
2023/12/03 12:17:17;;;;;;;;;;;10.90;81.20;;;;;;4997558;28;87774;-44
2023/12/03 12:19:49;;;;;;;;;;;11.00;81.20;;;;;;4995487;28;88526;-43
2023/12/03 12:22:15;;;;;;;;;;;10.90;81.00;;;;;;4998048;28;87466;-43
2023/12/03 12:24:41;;;;;;;;;;;10.90;81.00;;;;;;4996799;28;86820;-43
2023/12/03 12:27:06;;;;;;;;;;;10.90;81.00;;;;;;4999544;28;88451;-43
2023/12/03 12:29:32;;;;;;;;;;;10.90;81.10;;;;;;4997518;28;86964;-43
2023/12/03 12:31:59;;;;;;;;;;;10.90;81.10;;;;;;4994341;28;87973;-44
2023/12/03 12:34:25;;;;;;;;;;;10.90;81.00;;;;;;4997540;28;87408;-43
2023/12/03 12:37:01;;;;;;;;;;;10.80;81.00;;;;;;5000724;28;88017;-43
2023/12/03 12:39:27;;;;;;;;;;;10.80;80.90;;;;;;4996875;28;88598;-42
2023/12/03 12:41:54;;;;;;;;;;;10.80;81.00;;;;;;4994502;28;87619;-43
2023/12/03 12:44:20;;;;;;;;;;;10.80;81.00;;;;;;4998195;28;86844;-44
2023/12/03 12:46:52;;;;;;;;;;;10.80;80.90;;;;;;4995360;28;88728;-43
2023/12/03 12:49:18;;;;;;;;;;;10.80;80.90;;;;;;4995432;28;87083;-43
2023/12/03 12:51:44;;;;;;;;;;;10.70;80.90;;;;;;4995957;28;87840;-43
2023/12/03 12:54:09;;;;;;;;;;;10.80;80.90;;;;;;5001381;28;88640;-42
2023/12/03 12:56:35;;;;;;;;;;;10.70;80.80;;;;;;4998724;28;86795;-43
2023/12/03 12:59:01;;;;;;;;;;;10.70;80.90;;;;;;4995678;28;88361;-43
2023/12/03 13:01:28;;;;;;;;;;;10.70;80.80;;;;;;4993915;28;87079;-42
2023/12/03 13:03:54;;;;;;;;;;;10.70;80.80;;;;;;5000602;28;88014;-43
2023/12/03 13:06:20;;;;;;;;;;;10.70;80.70;;;;;;4994555;28;87389;-42
2023/12/03 13:08:46;;;;;;;;;;;10.70;80.80;;;;;;4993429;28;86879;-43
2023/12/03 13:11:12;;;;;;;;;;;10.70;80.80;;;;;;4997386;28;87123;-43
2023/12/03 13:13:37;;;;;;;;;;;10.60;80.70;;;;;;4999196;28;88128;-42
2023/12/03 13:16:03;;;;;;;;;;;10.60;80.70;;;;;;5002028;28;88724;-42
2023/12/03 13:18:29;;;;;;;;;;;10.60;80.70;;;;;;4995651;28;88122;-42
2023/12/03 13:20:55;;;;;;;;;;;10.60;80.70;;;;;;4996626;28;86093;-43
2023/12/03 13:23:21;;;;;;;;;;;10.60;80.70;;;;;;4997487;28;87758;-43
2023/12/03 13:25:46;;;;;;;;;;;10.60;80.70;;;;;;4993849;28;87787;-43
2023/12/03 13:28:12;;;;;;;;;;;10.60;80.50;;;;;;4994092;28;88023;-42
2023/12/03 13:30:37;;;;;;;;;;;10.50;80.60;;;;;;4996762;28;87561;-42
2023/12/03 13:33:03;;;;;;;;;;;10.50;80.60;;;;;;4995769;28;88698;-42
2023/12/03 13:35:29;;;;;;;;;;;10.50;80.50;;;;;;4998148;28;87788;-43
2023/12/03 13:37:54;;;;;;;;;;;10.50;80.50;;;;;;4998019;28;87977;-43
2023/12/03 13:40:20;;;;;;;;;;;10.50;80.40;;;;;;4998525;28;87121;-42
2023/12/03 13:42:52;;;;;;;;;;;10.50;80.40;;;;;;4993133;28;87008;-42
2023/12/03 13:45:18;;;;;;;;;;;10.40;80.30;;;;;;5000025;28;87138;-43
2023/12/03 13:47:44;;;;;;;;;;;10.40;80.40;;;;;;4994589;28;86763;-43
2023/12/03 13:50:09;;;;;;;;;;;10.40;80.30;;;;;;4999395;28;87382;-44
2023/12/03 13:52:35;;;;;;;;;;;10.40;80.20;;;;;;4996740;28;91369;-43
2023/12/03 13:55:00;;;;;;;;;;;10.40;80.20;;;;;;4991108;28;87017;-42
2023/12/03 13:57:26;;;;;;;;;;;10.40;80.20;;;;;;4993585;28;86952;-43
2023/12/03 13:59:52;;;;;;;;;;;10.40;80.20;;;;;;5002478;28;88560;-43
2023/12/03 14:02:18;;;;;;;;;;;10.40;80.20;;;;;;4997784;28;87047;-42
2023/12/03 14:04:43;;;;;;;;;;;10.30;80.10;;;;;;4992370;28;87522;-43
2023/12/03 14:07:09;;;;;;;;;;;10.30;80.10;;;;;;4997557;28;87005;-42
2023/12/03 14:09:34;;;;;;;;;;;10.30;80.10;;;;;;4997322;28;87784;-42
2023/12/03 14:12:04;;;;;;;;;;;10.30;80.10;;;;;;4997736;28;87559;-42